Time;durP1;ratioP1;P1;durP2;ratioP2;P2;SDS_P1;SDS_P2;PMS_P1;PMS_P2;Temp;Humidity;BMP_temperature;BMP_pressure;BME280_temperature;BME280_humidity;BME280_pressure;Samples;Min_cycle;Max_cycle;Signal;HPM_P1;HPM_P2
2022/09/26 00:01:17;;;;;;;8.38;5.30;;;;;;;10.03;100.00;99909.88;4893373;29;20929;-74
2022/09/26 00:03:46;;;;;;;11.13;5.63;;;;;;;10.03;100.00;99916.97;4900143;29;20195;-75
2022/09/26 00:06:16;;;;;;;13.43;5.60;;;;;;;10.01;100.00;99903.81;4890407;29;20051;-76
2022/09/26 00:08:45;;;;;;;12.05;5.40;;;;;;;9.94;100.00;99893.59;4889216;29;20045;-74
2022/09/26 00:11:15;;;;;;;8.60;5.28;;;;;;;10.00;100.00;99890.66;4890505;29;20052;-72
2022/09/26 00:13:42;;;;;;;8.88;5.38;;;;;;;10.05;100.00;99896.56;4887931;29;20053;-74
2022/09/26 00:16:10;;;;;;;9.30;5.72;;;;;;;10.06;100.00;99908.88;4889712;29;20514;-72
2022/09/26 00:18:37;;;;;;;8.25;5.68;;;;;;;9.95;100.00;99900.63;4887780;29;20071;-75
2022/09/26 00:21:06;;;;;;;10.88;5.47;;;;;;;9.97;100.00;99915.47;4896707;29;20052;-74
2022/09/26 00:23:33;;;;;;;14.50;6.20;;;;;;;9.99;100.00;99910.97;4891614;29;20052;-76
2022/09/26 00:26:00;;;;;;;10.60;6.15;;;;;;;9.90;100.00;99887.66;4886418;29;20140;-75
2022/09/26 00:28:27;;;;;;;10.40;6.10;;;;;;;10.03;100.00;99909.88;4891423;29;20416;-75
2022/09/26 00:30:55;;;;;;;14.40;6.22;;;;;;;9.95;100.00;99900.63;4885125;29;20049;-76
2022/09/26 00:33:23;;;;;;;10.30;6.13;;;;;;;9.92;100.00;99906.91;4892356;29;20048;-73
2022/09/26 00:35:51;;;;;;;11.55;5.82;;;;;;;9.87;100.00;99901.03;4886711;29;20080;-73
2022/09/26 00:38:18;;;;;;;13.88;6.95;;;;;;;9.83;100.00;99897.69;4886155;29;20044;-75
2022/09/26 00:40:45;;;;;;;14.77;7.05;;;;;;;9.69;100.00;99889.59;4896609;29;20487;-70
2022/09/26 00:43:34;;;;;;;11.63;6.90;;;;;;;9.74;100.00;99902.59;4893302;29;20083;-74
2022/09/26 00:46:03;;;;;;;10.95;6.97;;;;;;;9.68;100.00;99897.63;4890083;29;20066;-71
2022/09/26 00:48:32;;;;;;;12.90;7.32;;;;;;;9.71;100.00;99902.75;4888976;29;20079;-73
2022/09/26 00:50:59;;;;;;;12.38;6.82;;;;;;;9.78;100.00;99888.25;4885838;29;20411;-74
2022/09/26 00:53:36;;;;;;;14.45;6.40;;;;;;;9.78;100.00;99877.69;4895435;29;20131;-74
2022/09/26 00:56:10;;;;;;;10.48;6.80;;;;;;;9.84;100.00;99882.66;4889827;29;20137;-71
2022/09/26 00:58:43;;;;;;;12.27;6.47;;;;;;;9.87;100.00;99882.50;4891917;29;20574;-73
2022/09/26 01:01:10;;;;;;;11.35;6.55;;;;;;;9.85;100.00;99879.94;4892266;29;20084;-74
2022/09/26 01:03:40;;;;;;;12.60;6.53;;;;;;;9.84;100.00;99882.66;4896759;29;20075;-73
2022/09/26 01:06:07;;;;;;;14.05;6.03;;;;;;;9.84;100.00;99880.88;4893468;29;20063;-73
2022/09/26 01:08:42;;;;;;;9.20;6.20;;;;;;;9.83;100.00;99873.03;4892814;29;20049;-73
2022/09/26 01:11:10;;;;;;;8.10;5.75;;;;;;;9.84;100.00;99872.09;4889637;29;20106;-74
2022/09/26 01:13:43;;;;;;;10.70;6.68;;;;;;;9.91;100.00;99868.22;4893348;29;20057;-73
2022/09/26 01:16:09;;;;;;;11.30;6.28;;;;;;;9.86;100.00;99846.44;4889350;29;20488;-74
2022/09/26 01:18:36;;;;;;;16.45;6.25;;;;;;;9.91;100.00;99854.97;4890444;29;20048;-72
2022/09/26 01:21:28;;;;;;;10.05;6.05;;;;;;;9.92;100.00;99855.81;4893556;29;20080;-73
2022/09/26 01:23:57;;;;;;;10.35;5.97;;;;;;;9.92;100.00;99851.38;4892728;29;20127;-72
2022/09/26 01:26:27;;;;;;;11.85;6.22;;;;;;;9.91;100.00;99847.06;4893815;29;20074;-73
2022/09/26 01:29:20;;;;;;;9.65;6.47;;;;;;;9.80;100.00;99844.94;4893466;29;20168;-75
2022/09/26 01:35:40;;;;;;;13.68;6.72;;;;;;;9.68;100.00;99855.31;4889324;29;20108;-74
2022/09/26 01:38:07;;;;;;;10.43;6.38;;;;;;;9.71;100.00;99848.09;4885387;29;20055;-73
2022/09/26 01:40:36;;;;;;;10.07;6.78;;;;;;;9.74;100.00;99847.06;4895384;29;20574;-74
2022/09/26 01:43:13;;;;;;;11.30;6.38;;;;;;;9.78;100.00;99843.31;4890617;29;20068;-75
2022/09/26 01:45:57;;;;;;;14.43;7.00;;;;;;;9.73;100.00;99837.44;4893393;29;20060;-73
2022/09/26 01:48:31;;;;;;;11.93;6.53;;;;;;;9.66;100.00;99841.31;4889182;29;20412;-75
2022/09/26 01:51:24;;;;;;;13.35;7.35;;;;;;;9.62;100.00;99839.75;4884414;29;20153;-74
2022/09/26 01:53:55;;;;;;;18.85;7.53;;;;;;;9.57;100.00;99841.81;4891416;29;20467;-74
2022/09/26 01:56:25;;;;;;;;;;;;;;;9.54;100.00;99841.97;4890038;29;20052;-75
2022/09/26 01:58:57;;;;;;;12.90;7.17;;;;;;;9.49;100.00;99840.41;4890605;29;20033;-74
2022/09/26 02:01:28;;;;;;;16.67;8.38;;;;;;;9.43;100.00;99838.09;4893310;29;20496;-75
2022/09/26 02:03:57;;;;;;;;;;;;;;;9.37;100.00;99841.03;4892863;29;20052;-75
2022/09/26 02:06:32;;;;;;;15.13;7.88;;;;;;;9.30;100.00;99829.06;4888947;29;20342;-75
2022/09/26 02:09:07;;;;;;;15.15;8.45;;;;;;;9.22;100.00;99819.81;4884501;29;20108;-72
2022/09/26 02:11:39;;;;;;;13.40;8.15;;;;;;;9.22;100.00;99831.25;4880677;29;20102;-74
2022/09/26 02:14:10;;;;;;;15.70;8.60;;;;;;;9.16;100.00;99823.59;4889770;29;20061;-75
2022/09/26 02:16:54;;;;;;;16.23;8.57;;;;;;;9.14;100.00;99821.03;4888271;29;20049;-72
2022/09/26 02:19:31;;;;;;;12.95;8.40;;;;;;;9.11;100.00;99828.28;4885113;29;20072;-74
2022/09/26 02:21:59;;;;;;;14.25;8.90;;;;;;;9.10;100.00;99821.28;4884692;29;20057;-75
2022/09/26 02:24:26;;;;;;;12.05;8.15;;;;;;;9.10;100.00;99811.59;4892716;29;20068;-73
2022/09/26 02:26:53;;;;;;;13.57;8.45;;;;;;;8.94;100.00;99786.88;4894155;29;20076;-72
2022/09/26 02:29:20;;;;;;;13.90;8.90;;;;;;;8.97;100.00;99793.78;4896019;29;20471;-70
2022/09/26 02:31:52;;;;;;;12.70;8.43;;;;;;;8.98;100.00;99791.03;4888840;29;20057;-69
2022/09/26 02:34:27;;;;;;;16.60;9.30;;;;;;;8.87;100.00;99774.03;4882315;29;20133;-73
2022/09/26 02:37:00;;;;;;;12.95;8.68;;;;;;;8.99;100.00;99797.19;4890788;29;20052;-74
2022/09/26 02:39:26;;;;;;;11.02;8.52;;;;;;;8.98;100.00;99795.47;4884333;29;20061;-73
2022/09/26 02:41:59;;;;;;;13.43;8.70;;;;;;;9.02;100.00;99792.59;4891187;29;20080;-71
2022/09/26 02:44:47;;;;;;;11.35;7.85;;;;;;;9.11;100.00;99784.25;4884013;29;20364;-74
2022/09/26 02:47:38;;;;;;;15.65;8.73;;;;;;;9.13;100.00;99778.84;4883519;29;20172;-75
2022/09/26 02:50:37;;;;;;;13.50;8.13;;;;;;;9.09;100.00;99783.47;4891479;29;20079;-72
2022/09/26 02:53:25;;;;;;;13.32;9.13;;;;;;;9.02;100.00;99781.19;4893366;29;20120;-74
2022/09/26 02:56:02;;;;;;;12.05;8.75;;;;;;;8.99;100.00;99776.91;4891080;29;20055;-74
2022/09/26 02:59:02;;;;;;;13.32;9.00;;;;;;;8.96;100.00;99770.94;4887654;29;20068;-75
2022/09/26 03:02:00;;;;;;;11.15;8.82;;;;;;;8.96;100.00;99770.94;4892694;29;20064;-75
2022/09/26 03:04:33;;;;;;;12.40;8.68;;;;;;;8.99;100.00;99760.22;4887724;29;20040;-75
2022/09/26 03:07:05;;;;;;;15.50;8.82;;;;;;;9.03;100.00;99761.78;4888227;29;20055;-75
2022/09/26 03:09:33;;;;;;;11.95;8.70;;;;;;;8.93;100.00;99740.28;4892458;29;20056;-75
2022/09/26 03:12:03;;;;;;;14.50;9.48;;;;;;;9.00;100.00;99748.72;4881901;29;20049;-74
2022/09/26 03:14:32;;;;;;;12.85;9.10;;;;;;;8.98;100.00;99754.06;4887555;29;20064;-75
2022/09/26 03:17:01;;;;;;;15.57;9.25;;;;;;;9.03;100.00;99748.56;4891516;29;20054;-75
2022/09/26 03:19:36;;;;;;;15.88;9.45;;;;;;;9.08;100.00;99749.19;4892322;29;20143;-72
2022/09/26 03:22:03;;;;;;;13.27;8.68;;;;;;;8.99;100.00;99752.28;4882900;29;20143;-74
2022/09/26 03:24:30;;;;;;;16.50;9.68;;;;;;;8.89;100.00;99751.91;4885417;29;20055;-74
2022/09/26 03:26:59;;;;;;;16.13;10.02;;;;;;;8.83;100.00;99749.56;4887743;29;20053;-72
2022/09/26 03:29:25;;;;;;;18.63;9.75;;;;;;;8.74;100.00;99748.25;4895733;29;20085;-73
2022/09/26 03:31:52;;;;;;;17.08;10.43;;;;;;;8.65;100.00;99730.25;4897030;29;20079;-75
2022/09/26 03:34:19;;;;;;;15.77;9.98;;;;;;;8.65;100.00;99743.44;4898171;29;20049;-73
2022/09/26 03:36:45;;;;;;;15.60;9.75;;;;;;;8.55;100.00;99721.06;4897359;29;20063;-69
2022/09/26 03:39:12;;;;;;;16.83;10.55;;;;;;;8.65;100.00;99732.88;4893019;29;20072;-71
2022/09/26 03:41:41;;;;;;;12.68;10.13;;;;;;;8.73;100.00;99727.22;4895862;29;20108;-74
2022/09/26 03:44:07;;;;;;;15.43;10.20;;;;;;;8.84;100.00;99726.66;4892344;29;20049;-73
2022/09/26 03:46:34;;;;;;;13.57;9.38;;;;;;;8.90;100.00;99716.66;4892371;29;20063;-75
2022/09/26 03:49:05;;;;;;;12.90;9.13;;;;;;;8.86;100.00;99690.47;4883556;29;20053;-72
2022/09/26 03:51:32;;;;;;;15.65;9.85;;;;;;;8.97;100.00;99701.38;4882448;29;20049;-74
2022/09/26 03:53:58;;;;;;;15.75;10.15;;;;;;;9.02;100.00;99710.75;4884976;29;20056;-70
2022/09/26 03:56:25;;;;;;;18.85;9.77;;;;;;;9.08;100.00;99706.94;4890236;29;20048;-73
2022/09/26 03:58:52;;;;;;;13.70;9.15;;;;;;;9.09;100.00;99698.09;4887876;29;20056;-69
2022/09/26 04:01:20;;;;;;;13.20;9.23;;;;;;;9.11;100.00;99697.09;4892077;29;20071;-74
2022/09/26 04:03:48;;;;;;;13.32;9.63;;;;;;;9.12;100.00;99688.22;4892531;29;20051;-70
2022/09/26 04:06:18;;;;;;;11.00;8.45;;;;;;;9.17;100.00;99698.53;4904006;29;20067;-75
2022/09/26 04:08:47;;;;;;;12.77;9.15;;;;;;;9.21;100.00;99680.75;4899908;29;20488;-72
2022/09/26 04:11:18;;;;;;;14.25;9.30;;;;;;;9.14;100.00;99680.19;4903361;29;20101;-75
2022/09/26 04:13:46;;;;;;;15.25;9.80;;;;;;;9.02;100.00;99681.69;4904928;29;20167;-75
2022/09/26 04:16:19;;;;;;;16.17;9.82;;;;;;;8.86;100.00;99658.78;4897909;29;20124;-71
2022/09/26 04:18:46;;;;;;;21.05;11.48;;;;;;;8.88;100.00;99672.78;4901832;29;20080;-72
2022/09/26 04:21:13;;;;;;;16.73;10.70;;;;;;;8.90;100.00;99670.91;4899606;29;20049;-72
2022/09/26 04:23:42;;;;;;;21.63;11.98;;;;;;;8.84;100.00;99672.06;4892692;29;20128;-71
2022/09/26 04:26:17;;;;;;;19.67;11.30;;;;;;;8.65;100.00;99645.78;4888070;29;20128;-76
2022/09/26 04:28:50;;;;;;;20.40;11.55;;;;;;;8.68;100.00;99650.88;4894195;29;20088;-74
2022/09/26 04:31:18;;;;;;;18.20;11.98;;;;;;;8.75;100.00;99654.06;4888278;29;20128;-76
2022/09/26 04:33:45;;;;;;;17.63;11.05;;;;;;;8.79;100.00;99660.91;4900462;29;20059;-74
2022/09/26 04:36:14;;;;;;;17.83;10.93;;;;;;;8.78;100.00;99652.16;4889000;29;20226;-75
2022/09/26 04:38:40;;;;;;;18.75;11.77;;;;;;;8.71;100.00;99636.69;4888401;29;20052;-72
2022/09/26 04:41:10;;;;;;;18.40;11.90;;;;;;;8.75;100.00;99649.66;4895902;29;20056;-77
2022/09/26 04:43:37;;;;;;;17.33;11.93;;;;;;;8.68;100.00;99648.25;4898574;29;20057;-73
2022/09/26 04:46:14;;;;;;;20.15;12.07;;;;;;;8.68;100.00;99648.25;4891467;29;20540;-73
2022/09/26 04:48:49;;;;;;;23.00;11.98;;;;;;;8.65;100.00;99645.78;4895103;29;20339;-76
2022/09/26 04:51:18;;;;;;;16.83;11.50;;;;;;;8.61;100.00;99651.28;4885208;29;20095;-74
2022/09/26 04:53:45;;;;;;;18.83;11.18;;;;;;;8.58;100.00;99649.66;4895377;29;20140;-74
2022/09/26 04:56:13;;;;;;;19.38;11.80;;;;;;;8.59;100.00;99651.38;4891516;29;20502;-70
2022/09/26 04:58:42;;;;;;;15.05;11.00;;;;;;;8.56;100.00;99653.31;4893959;29;20060;-72
2022/09/26 05:01:14;;;;;;;19.85;11.43;;;;;;;8.54;100.00;99634.91;4899376;29;20081;-73
2022/09/26 05:03:41;;;;;;;16.65;10.77;;;;;;;8.58;100.00;99636.47;4902700;29;20426;-70
2022/09/26 05:06:09;;;;;;;21.23;11.52;;;;;;;8.49;100.00;99607.06;4894807;29;20514;-73
2022/09/26 05:08:37;;;;;;;17.75;11.98;;;;;;;8.50;100.00;99612.22;4892758;29;20495;-76
2022/09/26 05:11:04;;;;;;;21.20;12.00;;;;;;;8.61;100.00;99633.66;4891458;29;20056;-73
2022/09/26 05:13:31;;;;;;;18.95;12.65;;;;;;;8.59;100.00;99635.53;4891614;29;20052;-71
2022/09/26 05:15:59;;;;;;;23.95;12.75;;;;;;;8.56;100.00;99633.03;4892200;29;20052;-73
2022/09/26 05:18:27;;;;;;;20.17;12.80;;;;;;;8.57;100.00;99624.19;4888699;29;20049;-74
2022/09/26 05:20:54;;;;;;;21.20;13.27;;;;;;;8.45;100.00;99595.81;4894810;29;20148;-76
2022/09/26 05:26:19;;;;;;;20.70;12.93;;;;;;;8.86;100.00;99613.91;4889974;29;20139;-76
2022/09/26 05:28:54;;;;;;;19.20;13.05;;;;;;;8.93;100.00;99623.25;4893146;29;20411;-71
2022/09/26 05:31:23;;;;;;;17.60;12.48;;;;;;;8.84;100.00;99592.03;4890412;29;20480;-74
2022/09/26 05:33:50;;;;;;;17.45;12.98;;;;;;;8.97;100.00;99614.22;4881615;29;20066;-71
2022/09/26 05:36:18;;;;;;;18.17;12.23;;;;;;;8.99;100.00;99612.34;4882973;29;20381;-72
2022/09/26 05:38:45;;;;;;;18.92;12.35;;;;;;;9.00;100.00;99614.03;4886363;29;20155;-75
2022/09/26 05:41:13;;;;;;;23.13;13.63;;;;;;;8.99;100.00;99607.06;4885955;29;20504;-74
2022/09/26 05:43:39;;;;;;;19.48;13.63;;;;;;;8.98;100.00;99600.06;4886476;29;20116;-73
2022/09/26 05:46:08;;;;;;;18.65;13.45;;;;;;;9.05;100.00;99597.03;4891620;29;20506;-75
2022/09/26 05:48:36;;;;;;;21.75;12.98;;;;;;;9.08;100.00;99585.44;4887179;29;20129;-72
2022/09/26 05:51:08;;;;;;;22.15;12.90;;;;;;;9.09;100.00;99571.31;4887493;29;20064;-72
2022/09/26 05:53:35;;;;;;;24.20;13.35;;;;;;;9.22;100.00;99576.78;4887928;29;20057;-73
2022/09/26 05:56:03;;;;;;;18.85;12.80;;;;;;;9.22;100.00;99574.13;4893669;29;20076;-74
2022/09/26 05:58:31;;;;;;;15.10;12.00;;;;;;;9.21;100.00;99565.34;4892275;29;20419;-73
2022/09/26 06:01:04;;;;;;;17.30;12.55;;;;;;;9.39;100.00;99592.56;4893711;29;20517;-75
2022/09/26 06:03:34;;;;;;;20.15;13.00;;;;;;;9.32;100.00;99586.75;4884916;29;20149;-73
2022/09/26 06:06:05;;;;;;;23.83;13.40;;;;;;;9.19;100.00;99572.50;4890546;29;20578;-72
2022/09/26 06:08:32;;;;;;;19.48;12.32;;;;;;;9.30;100.00;99593.91;4888212;29;20492;-72
2022/09/26 06:11:01;;;;;;;18.05;12.90;;;;;;;9.32;100.00;99596.47;4883834;29;20087;-70
2022/09/26 06:13:29;;;;;;;21.05;12.63;;;;;;;9.29;100.00;99584.28;4886969;29;20134;-71
2022/09/26 06:16:13;;;;;;;16.80;12.98;;;;;;;9.38;100.00;99589.06;4885214;29;20064;-76
2022/09/26 06:18:42;;;;;;;24.77;13.52;;;;;;;9.45;100.00;99585.13;4887820;29;20072;-75
2022/09/26 06:21:11;;;;;;;18.88;13.50;;;;;;;9.55;100.00;99584.66;4888239;29;20476;-72
2022/09/26 06:23:38;;;;;;;20.42;12.93;;;;;;;9.61;100.00;99579.84;4883831;29;20080;-72
2022/09/26 06:26:09;;;;;;;20.25;13.13;;;;;;;9.63;100.00;99572.69;4885303;29;20056;-74
2022/09/26 06:28:36;;;;;;;18.25;13.93;;;;;;;9.57;100.00;99580.13;4892459;29;20152;-74
2022/09/26 06:31:10;;;;;;;24.10;13.75;;;;;;;9.45;100.00;99553.44;4879151;29;20507;-74
2022/09/26 06:33:36;;;;;;;20.52;13.65;;;;;;;9.52;100.00;99555.75;4886853;29;20064;-74
2022/09/26 06:36:06;;;;;;;22.98;14.25;;;;;;;9.59;100.00;99570.34;4882759;29;20052;-76
2022/09/26 06:38:33;;;;;;;23.35;14.60;;;;;;;9.61;100.00;99573.72;4893364;29;20079;-74
2022/09/26 06:41:00;;;;;;;21.38;15.02;;;;;;;9.64;100.00;99561.19;4882621;29;20476;-71
2022/09/26 06:43:26;;;;;;;26.58;15.75;;;;;;;9.49;100.00;99532.97;4881872;29;20053;-71
2022/09/26 06:45:53;;;;;;;27.10;17.45;;;;;;;9.50;100.00;99539.97;4880041;29;20059;-72
2022/09/26 06:48:24;;;;;;;25.55;16.63;;;;;;;9.73;100.00;99562.47;4886199;29;20079;-71
2022/09/26 06:50:52;;;;;;;25.75;17.40;;;;;;;9.75;100.00;99561.44;4882138;29;20140;-74
2022/09/26 06:53:19;;;;;;;28.52;18.83;;;;;;;9.77;100.00;99564.84;4885407;29;20108;-73
2022/09/26 06:55:46;;;;;;;28.88;20.95;;;;;;;9.76;100.00;99563.13;4885404;29;20053;-73
2022/09/26 06:58:13;;;;;;;32.78;21.63;;;;;;;9.75;100.00;99564.09;4886832;29;20410;-71
2022/09/26 07:00:40;;;;;;;29.27;20.50;;;;;;;9.70;100.00;99566.13;4885942;29;20095;-72
2022/09/26 07:03:07;;;;;;;34.63;22.70;;;;;;;9.69;100.00;99560.94;4886384;29;20496;-71
2022/09/26 07:05:33;;;;;;;32.42;22.13;;;;;;;9.53;100.00;99528.38;4881230;29;20070;-71
2022/09/26 07:08:01;;;;;;;33.53;23.50;;;;;;;9.72;100.00;99560.75;4882683;29;20139;-73
2022/09/26 07:10:34;;;;;;;28.88;22.25;;;;;;;9.74;100.00;99554.47;4883532;29;20063;-71
2022/09/26 07:13:06;;;;;;;32.53;22.65;;;;;;;9.74;100.00;99562.38;4883149;29;20055;-72
2022/09/26 07:15:34;;;;;;;31.92;22.08;;;;;;;9.84;100.00;99557.41;4887386;29;20052;-75
2022/09/26 07:18:03;;;;;;;31.13;23.23;;;;;;;9.88;100.00;99555.47;4886384;29;20060;-76
2022/09/26 07:20:38;;;;;;;30.42;21.13;;;;;;;10.05;100.00;99556.19;4890007;29;20099;-71
2022/09/26 07:23:08;;;;;;;32.67;21.65;;;;;;;10.25;100.00;99554.19;4889856;29;20426;-74
2022/09/26 07:25:37;;;;;;;26.37;19.90;;;;;;;10.32;100.00;99552.88;4887733;29;20057;-74
2022/09/26 07:28:06;;;;;;;28.13;20.55;;;;;;;10.29;100.00;99542.47;4886109;29;20949;-74
2022/09/26 07:30:32;;;;;;;28.15;20.98;;;;;;;10.24;100.00;99510.13;4881269;29;20053;-75
2022/09/26 07:33:02;;;;;;;25.30;19.92;;;;;;;10.42;100.00;99530.22;4889128;29;20052;-74
2022/09/26 07:35:33;;;;;;;28.83;20.48;;;;;;;10.31;100.00;99522.06;4892015;29;20060;-74
2022/09/26 07:38:00;;;;;;;31.58;21.05;;;;;;;10.37;100.00;99525.22;4873855;29;20052;-71
2022/09/26 07:40:26;;;;;;;31.40;20.13;;;;;;;10.45;100.00;99524.75;4896152;29;20049;-72
2022/09/26 07:42:58;;;;;;;26.17;19.88;;;;;;;10.59;100.00;99518.59;4887778;29;20072;-72
2022/09/26 07:51:15;;;;;;;23.98;16.42;;;;;;;11.20;100.00;99519.16;4887833;29;20463;-73
2022/09/26 07:53:42;;;;;;;21.00;15.60;;;;;;;11.44;100.00;99511.44;4890855;29;20084;-70
2022/09/26 07:56:09;;;;;;;18.65;15.40;;;;;;;11.49;100.00;99508.50;4887795;29;20049;-74
2022/09/26 07:58:38;;;;;;;18.20;13.75;;;;;;;11.85;100.00;99514.06;4889128;29;20052;-72
2022/09/26 08:01:10;;;;;;;15.93;13.45;;;;;;;12.13;98.08;99512.22;4888181;29;20079;-74
2022/09/26 08:03:41;;;;;;;18.98;13.13;;;;;;;12.37;97.85;99515.03;4878251;29;20186;-74
2022/09/26 08:06:08;;;;;;;15.60;12.43;;;;;;;12.42;94.99;99515.59;4891373;29;20124;-72
2022/09/26 08:08:35;;;;;;;18.00;12.18;;;;;;;12.40;94.27;99507.72;4897635;29;20391;-72
2022/09/26 08:11:03;;;;;;;15.48;11.90;;;;;;;12.53;95.47;99500.59;4896253;29;20057;-73
2022/09/26 08:13:31;;;;;;;17.48;11.95;;;;;;;12.54;92.19;99504.09;4891789;29;20049;-72
2022/09/26 08:16:03;;;;;;;13.90;10.25;;;;;;;12.48;91.76;99504.53;4897698;29;20053;-73
2022/09/26 08:18:31;;;;;;;15.07;12.18;;;;;;;12.18;93.05;99508.31;4893608;29;20140;-72
2022/09/26 08:20:57;;;;;;;13.10;10.18;;;;;;;11.93;92.42;99502.97;4894573;29;20069;-71
2022/09/26 08:23:24;;;;;;;15.10;10.25;;;;;;;11.66;93.23;99496.78;4891013;29;20520;-71
2022/09/26 08:25:50;;;;;;;13.43;9.73;;;;;;;11.35;95.82;99498.78;4891922;29;20053;-73
2022/09/26 08:28:17;;;;;;;14.20;9.52;;;;;;;11.20;97.25;99494.44;4891054;29;20386;-74
2022/09/26 08:30:44;;;;;;;13.27;10.18;;;;;;;11.06;98.70;99500.63;4886682;29;20055;-71
2022/09/26 08:33:11;;;;;;;12.45;9.75;;;;;;;11.01;100.00;99488.63;4895238;29;20517;-75
2022/09/26 08:35:38;;;;;;;14.27;9.82;;;;;;;11.23;100.00;99491.63;4889828;29;20105;-75
2022/09/26 08:38:05;;;;;;;16.42;9.95;;;;;;;11.27;98.34;99468.41;4892882;29;20095;-74
2022/09/26 08:40:55;;;;;;;15.82;9.70;;;;;;;11.38;98.07;99487.97;4895738;29;20078;-72
2022/09/26 08:43:34;;;;;;;12.00;9.57;;;;;;;11.47;98.03;99489.19;4882011;29;20049;-73
2022/09/26 08:49:23;;;;;;;10.57;8.77;;;;;;;11.88;96.75;99483.84;4883310;29;20056;-76
2022/09/26 08:51:55;;;;;;;9.65;8.65;;;;;;;11.84;95.42;99458.47;4882486;29;20059;-75
2022/09/26 08:54:39;;;;;;;9.25;7.53;;;;;;;12.05;93.90;99483.56;4893752;29;20148;-72
2022/09/26 08:57:17;;;;;;;11.40;8.43;;;;;;;12.13;93.60;99475.91;4889836;29;20503;-70
2022/09/26 08:59:47;;;;;;;12.38;7.78;;;;;;;12.24;93.84;99468.09;4886809;29;20141;-72
2022/09/26 09:02:37;;;;;;;11.27;8.27;;;;;;;12.49;92.50;99474.34;4872955;29;20064;-71
2022/09/26 09:05:14;;;;;;;10.98;8.48;;;;;;;12.62;91.42;99465.41;4874094;29;20056;-72
2022/09/26 09:07:40;;;;;;;12.75;8.55;;;;;;;12.71;91.72;99471.06;4893444;29;20151;-72
2022/09/26 09:10:16;;;;;;;10.23;7.85;;;;;;;12.76;89.86;99443.19;4888579;29;20075;-70
2022/09/26 09:13:02;;;;;;;13.32;8.13;;;;;;;12.96;88.60;99463.88;4892751;29;20462;-74
2022/09/26 09:15:56;;;;;;;13.60;8.50;;;;;;;12.99;88.73;99460.16;4893034;29;20204;-74
2022/09/26 09:18:53;;;;;;;12.38;7.88;;;;;;;13.04;88.75;99470.47;4891024;29;20139;-72
2022/09/26 09:21:39;;;;;;;10.98;6.93;;;;;;;13.21;87.18;99467.50;4870374;29;20144;-73
2022/09/26 09:24:26;;;;;;;10.98;7.00;;;;;;;13.29;85.66;99468.63;4891482;29;20471;-74
2022/09/26 09:27:07;;;;;;;10.80;6.88;;;;;;;13.44;85.18;99460.47;4890426;29;20072;-73
2022/09/26 09:30:15;;;;;;;8.40;5.88;;;;;;;13.69;83.23;99452.41;4883592;29;20056;-73
2022/09/26 09:32:50;;;;;;;9.88;5.75;;;;;;;13.75;83.05;99446.59;4891643;29;20527;-71
2022/09/26 09:35:21;;;;;;;10.75;5.20;;;;;;;13.88;81.00;99443.84;4891079;29;20079;-73
2022/09/26 09:37:52;;;;;;;12.23;5.03;;;;;;;13.88;79.70;99442.03;4885108;29;20120;-74
2022/09/26 09:40:26;;;;;;;6.72;5.10;;;;;;;13.98;80.24;99443.06;4889323;29;20697;-71
2022/09/26 09:43:01;;;;;;;9.13;5.10;;;;;;;13.66;79.94;99410.06;4892240;29;20515;-73
2022/09/26 09:45:45;;;;;;;6.07;4.80;;;;;;;13.54;82.08;99400.31;4895209;29;20060;-73
2022/09/26 09:48:14;;;;;;;9.48;4.20;;;;;;;13.89;80.84;99408.31;4886250;29;20492;-71
2022/09/26 09:50:53;;;;;;;8.23;4.40;;;;;;;14.23;78.30;99418.06;4885117;29;20060;-70
2022/09/26 09:54:01;;;;;;;8.05;4.03;;;;;;;14.44;78.55;99409.41;4886987;29;20056;-73
2022/09/26 09:57:09;;;;;;;6.55;4.10;;;;;;;14.71;76.94;99404.56;4873412;29;20048;-71
2022/09/26 09:59:57;;;;;;;7.03;4.18;;;;;;;15.09;74.56;99390.81;4875569;29;20059;-71
2022/09/26 10:02:42;;;;;;;4.88;3.25;;;;;;;15.40;71.94;99389.16;4888913;29;20060;-73
2022/09/26 10:05:44;;;;;;;7.25;3.50;;;;;;;15.75;70.31;99375.53;4880584;29;20041;-67
2022/09/26 10:08:19;;;;;;;5.70;3.83;;;;;;;15.89;68.70;99371.72;4890092;29;20579;-72
2022/09/26 10:11:10;;;;;;;5.57;2.92;;;;;;;15.76;70.16;99375.41;4886309;29;20175;-73
2022/09/26 10:13:41;;;;;;;5.55;3.13;;;;;;;15.91;67.94;99364.41;4878357;29;20350;-72
2022/09/26 10:16:13;;;;;;;5.85;2.90;;;;;;;15.85;67.62;99365.78;4892395;29;20112;-73
2022/09/26 10:19:00;;;;;;;7.45;2.50;;;;;;;15.88;67.97;99365.53;4894802;29;20491;-71
2022/09/26 10:21:38;;;;;;;6.72;2.83;;;;;;;15.98;67.58;99358.44;4887535;29;20059;-70
2022/09/26 10:24:07;;;;;;;5.93;2.72;;;;;;;16.10;65.86;99361.84;4886250;29;20104;-73
2022/09/26 10:26:35;;;;;;;4.55;2.15;;;;;;;16.23;65.37;99350.94;4884063;29;20057;-75
2022/09/26 10:29:33;;;;;;;5.05;2.28;;;;;;;16.18;64.53;99355.88;4889913;29;20059;-72
2022/09/26 10:32:01;;;;;;;5.45;2.47;;;;;;;15.77;67.08;99352.22;4887899;29;20637;-73
2022/09/26 10:34:30;;;;;;;5.43;1.67;;;;;;;15.68;65.55;99350.34;4872508;29;20053;-72
2022/09/26 10:37:19;;;;;;;3.72;2.00;;;;;;;15.55;65.68;99357.69;4886476;29;20049;-72
2022/09/26 10:42:43;;;;;;;3.10;1.58;;;;;;;14.90;64.26;99346.13;4880855;29;20053;-69
2022/09/26 10:45:26;;;;;;;5.65;2.03;;;;;;;14.68;66.03;99352.34;4883760;29;20060;-72
2022/09/26 10:47:55;;;;;;;2.58;1.60;;;;;;;14.27;63.73;99344.97;4889939;29;20068;-70
2022/09/26 10:50:26;;;;;;;5.07;1.92;;;;;;;14.02;63.25;99353.16;4896242;29;20051;-71
2022/09/26 10:53:04;;;;;;;4.85;1.92;;;;;;;14.04;64.60;99357.41;4890113;29;20060;-69
2022/09/26 10:55:57;;;;;;;4.70;1.90;;;;;;;14.25;65.45;99346.03;4887465;29;20101;-74
2022/09/26 10:58:28;;;;;;;3.70;1.98;;;;;;;14.38;65.64;99349.44;4886452;29;20048;-70
2022/09/26 11:00:56;;;;;;;;;;;;;;;14.48;65.12;99341.63;4893363;29;20052;-71
2022/09/26 11:03:42;;;;;;;4.63;2.22;;;;;;;14.59;65.88;99338.94;4894076;29;20346;-71
2022/09/26 11:06:32;;;;;;;3.80;2.38;;;;;;;14.69;64.11;99346.03;4888116;29;20056;-70
2022/09/26 11:09:03;;;;;;;3.58;2.10;;;;;;;14.72;61.22;99331.63;4885568;29;20108;-73
2022/09/26 11:11:35;;;;;;;4.63;2.00;;;;;;;14.66;59.92;99324.97;4887267;29;20116;-68
2022/09/26 11:14:05;;;;;;;4.60;2.05;;;;;;;14.68;60.29;99335.50;4888802;29;20056;-69
2022/09/26 11:16:40;;;;;;;6.13;2.40;;;;;;;14.81;60.61;99346.03;4886806;29;20108;-72
2022/09/26 11:19:18;;;;;;;5.50;2.33;;;;;;;14.93;59.44;99335.22;4891388;29;20163;-70
2022/09/26 11:22:03;;;;;;;6.07;2.88;;;;;;;15.06;59.83;99319.06;4894938;29;20052;-74
2022/09/26 11:24:45;;;;;;;6.97;2.40;;;;;;;15.39;58.82;99310.94;4885093;29;20053;-70
2022/09/26 11:27:20;;;;;;;4.80;2.80;;;;;;;15.35;58.10;99330.84;4889193;29;20052;-70
2022/09/26 11:30:26;;;;;;;5.25;2.60;;;;;;;15.26;58.26;99331.63;4885585;29;20099;-71
2022/09/26 11:32:56;;;;;;;4.85;3.13;;;;;;;14.99;59.03;99332.03;4856352;29;20081;-74
2022/09/26 11:35:32;;;;;;;3.60;2.88;;;;;;;14.64;60.57;99323.41;4883218;29;20127;-71
2022/09/26 11:38:12;;;;;;;6.10;3.10;;;;;;;14.31;61.33;99290.50;4887027;29;20053;-71
2022/09/26 11:40:49;;;;;;;5.10;3.10;;;;;;;14.41;62.13;99301.28;4888543;29;20147;-76
2022/09/26 11:43:29;;;;;;;6.55;3.10;;;;;;;14.69;61.86;99322.06;4884160;29;20087;-75
2022/09/26 11:46:05;;;;;;;5.38;3.45;;;;;;;14.56;61.30;99320.53;4880015;29;20069;-71
2022/09/26 11:48:53;;;;;;;6.80;3.58;;;;;;;14.83;61.13;99312.94;4884230;29;20048;-72
2022/09/26 11:51:44;;;;;;;4.68;2.80;;;;;;;14.85;61.19;99308.34;4882865;29;20045;-69
2022/09/26 11:54:37;;;;;;;4.43;2.83;;;;;;;15.29;59.61;99299.31;4891948;29;20135;-74
2022/09/26 11:57:31;;;;;;;6.80;3.17;;;;;;;15.54;58.03;99307.94;4890962;29;20052;-73
2022/09/26 12:00:14;;;;;;;5.88;3.03;;;;;;;15.90;57.57;99293.31;4886702;29;20049;-75
2022/09/26 12:03:18;;;;;;;5.80;2.67;;;;;;;15.83;55.85;99292.16;4892520;29;20515;-74
2022/09/26 12:06:01;;;;;;;5.68;2.90;;;;;;;15.71;57.17;99278.03;4883673;29;20075;-74
2022/09/26 12:09:18;;;;;;;3.92;2.78;;;;;;;16.08;56.50;99281.03;4881700;29;20045;-75
2022/09/26 12:11:59;;;;;;;7.15;2.78;;;;;;;16.28;54.82;99280.13;4845670;29;20054;-74